Observation data for Plains on 01/19/2019      Previous  Date  Next       Current Mesonet Observations  Soil Data  Daily Summary Page  Observations in Plain Language
KPPS 190600Z 33023G32KT 02/M00 A3008 RMK A01 T00231001  RH  085%=      5-min Rain = 0
KPPS 190605Z 33024G32KT 02/M00 A3009 RMK A01 T00241002  RH  084%=      5-min Rain = 0
KPPS 190610Z 33025G34KT 02/M00 A3009 RMK A01 T00241004  RH  083%=      5-min Rain = 0
KPPS 190615Z 33028G39KT 02/M01 A3009 RMK A01 T00231008  RH  081%=      5-min Rain = 0
KPPS 190620Z 34028G38KT 02/M01 A301 RMK A01 T00221011  RH  080%=      5-min Rain = 0
KPPS 190625Z 34028G36KT 02/M01 A301 RMK A01 T00211012  RH  080%=      5-min Rain = 0
KPPS 190630Z 34025G35KT 02/M01 A3011 RMK A01 T00191012  RH  081%=      5-min Rain = 0
KPPS 190635Z 34025G31KT 02/M01 A3011 RMK A01 T00181012  RH  081%=      5-min Rain = 0
KPPS 190640Z 34026G33KT 02/M01 A3011 RMK A01 T00191013  RH  080%=      5-min Rain = 0
KPPS 190645Z 33023G29KT 02/M01 A3011 RMK A01 T00191013  RH  080%=      5-min Rain = 0
KPPS 190650Z 33023G32KT 02/M01 A3012 RMK A01 T00191010  RH  082%=      5-min Rain = 0
KPPS 190655Z 33020G25KT 02/M01 A3012 RMK A01 T00181009  RH  083%=      5-min Rain = 0
KPPS 190700Z 33019G25KT 02/M01 A3013 RMK A01 T00171009  RH  084%=      5-min Rain = 0
KPPS 190705Z 33021KT 02/M01 A3013 RMK A01 T00171011  RH  083%=      5-min Rain = 0
KPPS 190710Z 33018G24KT 02/M01 A3013 RMK A01 T00171012  RH  082%=      5-min Rain = 0
KPPS 190715Z 33018G23KT 02/M01 A3014 RMK A01 T00161012  RH  083%=      5-min Rain = 0
KPPS 190720Z 33023G28KT 02/M02 A3014 RMK A01 T00171015  RH  080%=      5-min Rain = 0
KPPS 190725Z 34020G26KT 02/M02 A3014 RMK A01 T00161020  RH  078%=      5-min Rain = 0
KPPS 190730Z 33021G26KT 02/M02 A3014 RMK A01 T00151021  RH  078%=      5-min Rain = 0
KPPS 190735Z 33022KT 01/M02 A3014 RMK A01 T00131023  RH  078%=      5-min Rain = 0
KPPS 190740Z 34028G37KT 01/M03 A3014 RMK A01 T00131027  RH  075%=      5-min Rain = 0
KPPS 190745Z 34025G32KT 01/M03 A3014 RMK A01 T00131029  RH  074%=      5-min Rain = 0
KPPS 190750Z 34023G30KT 01/M03 A3014 RMK A01 T00121028  RH  075%=      5-min Rain = 0
KPPS 190755Z 34023G28KT 01/M03 A3014 RMK A01 T00101027  RH  077%=      5-min Rain = 0
KPPS 190800Z 34022G29KT 01/M03 A3015 RMK A01 T00101027  RH  077%=      5-min Rain = 0
KPPS 190805Z 34023G31KT 01/M03 A3014 RMK A01 T00111027  RH  076%=      5-min Rain = 0
KPPS 190810Z 34020KT 01/M03 A3015 RMK A01 T00111026  RH  077%=      5-min Rain = 0
KPPS 190815Z 33019G24KT 01/M03 A3015 RMK A01 T00101026  RH  078%=      5-min Rain = 0
KPPS 190820Z 33019G25KT 01/M03 A3015 RMK A01 T00101025  RH  078%=      5-min Rain = 0
KPPS 190825Z 33019G24KT 01/M03 A3015 RMK A01 T00111025  RH  077%=      5-min Rain = 0
KPPS 190830Z 33018KT 01/M03 A3015 RMK A01 T00111025  RH  078%=      5-min Rain = 0
KPPS 190835Z 32017G23KT 01/M02 A3016 RMK A01 T00091023  RH  080%=      5-min Rain = 0
KPPS 190840Z 32019G24KT 01/M02 A3016 RMK A01 T00101022  RH  080%=      5-min Rain = 0
KPPS 190845Z 33021G26KT 01/M02 A3016 RMK A01 T00121024  RH  077%=      5-min Rain = 0
KPPS 190850Z 33020G25KT 01/M03 A3016 RMK A01 T00131026  RH  076%=      5-min Rain = 0
KPPS 190855Z 33019KT 01/M03 A3017 RMK A01 T00121028  RH  075%=      5-min Rain = 0
KPPS 190900Z 32016KT 01/M03 A3017 RMK A01 T00111028  RH  076%=      5-min Rain = 0
KPPS 190905Z 32017G22KT 01/M03 A3018 RMK A01 T00101027  RH  077%=      5-min Rain = 0
KPPS 190910Z 33017KT 01/M03 A3018 RMK A01 T00111028  RH  076%=      5-min Rain = 0
KPPS 190915Z 33017KT 01/M03 A3018 RMK A01 T00121029  RH  075%=      5-min Rain = 0
KPPS 190920Z 32015KT 01/M03 A3018 RMK A01 T00101028  RH  076%=      5-min Rain = 0
KPPS 190925Z 32013G18KT 01/M03 A3018 RMK A01 T00091028  RH  077%=      5-min Rain = 0
KPPS 190930Z 32012KT 01/M03 A3019 RMK A01 T00071027  RH  078%=      5-min Rain = 0
KPPS 190935Z 32012KT 01/M03 A3019 RMK A01 T00071027  RH  079%=      5-min Rain = 0
KPPS 190940Z 32011KT 01/M03 A3019 RMK A01 T00051027  RH  080%=      5-min Rain = 0
KPPS 190945Z 32012KT 01/M03 A3019 RMK A01 T00061027  RH  080%=      5-min Rain = 0
KPPS 190950Z 32012KT 01/M03 A3019 RMK A01 T00051027  RH  080%=      5-min Rain = 0
KPPS 190955Z 32012KT 01/M03 A3019 RMK A01 T00051027  RH  080%=      5-min Rain = 0
KPPS 191000Z 33012KT 01/M03 A3019 RMK A01 T00051027  RH  080%=      5-min Rain = 0
KPPS 191005Z 33013KT 01/M03 A3019 RMK A01 T00051027  RH  080%=      5-min Rain = 0
KPPS 191010Z 33013KT 00/M03 A3019 RMK A01 T00041027  RH  080%=      5-min Rain = 0
KPPS 191015Z 33013KT 00/M03 A3019 RMK A01 T00041027  RH  080%=      5-min Rain = 0
KPPS 191020Z 33014KT 01/M03 A3019 RMK A01 T00061028  RH  079%=      5-min Rain = 0
KPPS 191025Z 33014G19KT 01/M03 A3019 RMK A01 T00071028  RH  078%=      5-min Rain = 0
KPPS 191030Z 33014KT 01/M03 A3019 RMK A01 T00081028  RH  078%=      5-min Rain = 0
KPPS 191035Z 33014KT 01/M03 A3019 RMK A01 T00081029  RH  077%=      5-min Rain = 0
KPPS 191040Z 33014KT 01/M03 A3019 RMK A01 T00081028  RH  077%=      5-min Rain = 0
KPPS 191045Z 33014KT 01/M03 A3019 RMK A01 T00081029  RH  077%=      5-min Rain = 0
KPPS 191050Z 33013KT 01/M03 A302 RMK A01 T00071029  RH  077%=      5-min Rain = 0
KPPS 191055Z 32013KT 01/M03 A302 RMK A01 T00071029  RH  077%=      5-min Rain = 0
KPPS 191100Z 32012KT 01/M03 A302 RMK A01 T00071030  RH  077%=      5-min Rain = 0
KPPS 191105Z 32011KT 01/M03 A302 RMK A01 T00061030  RH  077%=      5-min Rain = 0
KPPS 191110Z 32011KT 01/M03 A302 RMK A01 T00061030  RH  077%=      5-min Rain = 0
KPPS 191115Z 32010KT 01/M03 A302 RMK A01 T00051030  RH  078%=      5-min Rain = 0
KPPS 191120Z 32011KT 01/M03 A302 RMK A01 T00051031  RH  077%=      5-min Rain = 0
KPPS 191125Z 33010KT 01/M03 A302 RMK A01 T00051031  RH  077%=      5-min Rain = 0
KPPS 191130Z 32010KT 00/M03 A3021 RMK A01 T00031032  RH  078%=      5-min Rain = 0
KPPS 191135Z 32010KT 00/M03 A3021 RMK A01 T00021032  RH  078%=      5-min Rain = 0
KPPS 191140Z 32010KT 00/M03 A3021 RMK A01 T00011033  RH  079%=      5-min Rain = 0
KPPS 191145Z 32009KT M00/M03 A3021 RMK A01 T10011033  RH  079%=      5-min Rain = 0
KPPS 191150Z 32008KT M00/M03 A3021 RMK A01 T10031034  RH  080%=      5-min Rain = 0
KPPS 191155Z 31009KT M00/M03 A3021 RMK A01 T10041034  RH  081%=      5-min Rain = 0
KPPS 191200Z 31009KT M01/M03 A3021 RMK A01 T10051034  RH  081%=      5-min Rain = 0
KPPS 191205Z 31010KT M00/M03 A3021 RMK A01 T10041034  RH  081%=      5-min Rain = 0
KPPS 191210Z 31009KT M01/M03 A3022 RMK A01 T10051034  RH  081%=      5-min Rain = 0
KPPS 191215Z 31009KT M01/M04 A3022 RMK A01 T10051035  RH  081%=      5-min Rain = 0
KPPS 191220Z 31010KT M01/M04 A3023 RMK A01 T10061035  RH  081%=      5-min Rain = 0
KPPS 191225Z 31010KT M01/M04 A3023 RMK A01 T10051035  RH  081%=      5-min Rain = 0
KPPS 191230Z 31010KT M01/M04 A3023 RMK A01 T10051035  RH  080%=      5-min Rain = 0
KPPS 191235Z 31010KT M01/M04 A3024 RMK A01 T10051035  RH  080%=      5-min Rain = 0
KPPS 191240Z 31008KT M01/M04 A3024 RMK A01 T10061036  RH  081%=      5-min Rain = 0
KPPS 191245Z 31009KT M01/M04 A3024 RMK A01 T10061037  RH  080%=      5-min Rain = 0
KPPS 191250Z 31010KT M01/M04 A3025 RMK A01 T10061037  RH  080%=      5-min Rain = 0
KPPS 191255Z 31010KT M01/M04 A3025 RMK A01 T10061036  RH  080%=      5-min Rain = 0
KPPS 191300Z 31010KT M01/M04 A3025 RMK A01 T10051036  RH  080%=      5-min Rain = 0
KPPS 191305Z 31010KT M01/M04 A3026 RMK A01 T10051036  RH  080%=      5-min Rain = 0
KPPS 191310Z 31009KT M00/M04 A3026 RMK A01 T10041037  RH  079%=      5-min Rain = 0
KPPS 191315Z 31009KT M01/M04 A3026 RMK A01 T10061037  RH  080%=      5-min Rain = 0
KPPS 191320Z 31009KT M01/M04 A3026 RMK A01 T10061037  RH  080%=      5-min Rain = 0
KPPS 191325Z 30009KT M01/M04 A3027 RMK A01 T10061038  RH  080%=      5-min Rain = 0
KPPS 191330Z 30009KT M01/M04 A3027 RMK A01 T10071038  RH  080%=      5-min Rain = 0
KPPS 191335Z 30008KT M01/M04 A3027 RMK A01 T10091038  RH  081%=      5-min Rain = 0
KPPS 191340Z 30008KT M01/M04 A3027 RMK A01 T10121039  RH  082%=      5-min Rain = 0
KPPS 191345Z 30008KT M01/M04 A3028 RMK A01 T10141040  RH  083%=      5-min Rain = 0
KPPS 191350Z 30007KT M02/M04 A3028 RMK A01 T10171041  RH  084%=      5-min Rain = 0
KPPS 191355Z 28007KT M02/M05 A3028 RMK A01 T10231045  RH  086%=      5-min Rain = 0
KPPS 191400Z 28008KT M03/M05 A3028 RMK A01 T10271046  RH  087%=      5-min Rain = 0
KPPS 191405Z 28008KT M03/M05 A3029 RMK A01 T10291047  RH  088%=      5-min Rain = 0
KPPS 191410Z 28008KT M03/M05 A3029 RMK A01 T10281046  RH  088%=      5-min Rain = 0
KPPS 191415Z 29008KT M03/M05 A3029 RMK A01 T10271046  RH  088%=      5-min Rain = 0
KPPS 191420Z 29007KT M03/M04 A3029 RMK A01 T10251044  RH  087%=      5-min Rain = 0
KPPS 191425Z 30007KT M02/M04 A3029 RMK A01 T10221042  RH  086%=      5-min Rain = 0
KPPS 191430Z 30008KT M02/M04 A3029 RMK A01 T10181040  RH  085%=      5-min Rain = 0
KPPS 191435Z 29008KT M02/M04 A303 RMK A01 T10151039  RH  084%=      5-min Rain = 0
KPPS 191440Z 29008KT M01/M04 A303 RMK A01 T10111037  RH  083%=      5-min Rain = 0
KPPS 191445Z 30009KT M01/M04 A303 RMK A01 T10051035  RH  081%=      5-min Rain = 0
KPPS 191450Z 30010KT 00/M03 A3031 RMK A01 T00011034  RH  077%=      5-min Rain = 0
KPPS 191455Z 30009KT 01/M03 A3031 RMK A01 T00061033  RH  075%=      5-min Rain = 0
KPPS 191500Z 30008KT 01/M03 A3031 RMK A01 T00101033  RH  073%=      5-min Rain = 0
KPPS 191505Z 30008KT 01/M03 A3031 RMK A01 T00121032  RH  073%=      5-min Rain = 0
KPPS 191510Z 31007KT 02/M03 A3031 RMK A01 T00171030  RH  071%=      5-min Rain = 0
KPPS 191515Z 32009KT 02/M03 A3031 RMK A01 T00221030  RH  069%=      5-min Rain = 0
KPPS 191520Z 32008KT 03/M03 A3031 RMK A01 T00251029  RH  068%=      5-min Rain = 0
KPPS 191525Z 32009KT 03/M03 A3031 RMK A01 T00281028  RH  067%=      5-min Rain = 0
KPPS 191530Z 32010KT 03/M03 A3031 RMK A01 T00311027  RH  066%=      5-min Rain = 0
KPPS 191535Z 33010G15KT 04/M03 A3032 RMK A01 T00361025  RH  065%=      5-min Rain = 0
KPPS 191540Z 33013KT 04/M03 A3032 RMK A01 T00411026  RH  062%=      5-min Rain = 0
KPPS 191545Z 33014KT 04/M03 A3032 RMK A01 T00431029  RH  060%=      5-min Rain = 0
KPPS 191550Z 33012KT 05/M03 A3033 RMK A01 T00471027  RH  059%=      5-min Rain = 0
KPPS 191555Z 32012KT 05/M03 A3033 RMK A01 T00491028  RH  058%=      5-min Rain = 0
KPPS 191600Z 33013KT 05/M03 A3033 RMK A01 T00501028  RH  057%=      5-min Rain = 0
KPPS 191605Z 32013KT 05/M03 A3033 RMK A01 T00521027  RH  057%=      5-min Rain = 0
KPPS 191610Z 33013KT 05/M03 A3033 RMK A01 T00541029  RH  055%=      5-min Rain = 0
KPPS 191615Z 33014KT 06/M03 A3033 RMK A01 T00561029  RH  055%=      5-min Rain = 0
KPPS 191620Z 32014G19KT 06/M03 A3033 RMK A01 T00581029  RH  054%=      5-min Rain = 0
KPPS 191625Z 33014KT 06/M03 A3033 RMK A01 T00601030  RH  053%=      5-min Rain = 0
KPPS 191630Z 33013G18KT 06/M03 A3034 RMK A01 T00641028  RH  052%=      5-min Rain = 0
KPPS 191635Z 33015KT 06/M03 A3034 RMK A01 T00641031  RH  051%=      5-min Rain = 0
KPPS 191640Z 33015G21KT 07/M03 A3033 RMK A01 T00651030  RH  051%=      5-min Rain = 0
KPPS 191645Z 33014G20KT 07/M03 A3034 RMK A01 T00681031  RH  050%=      5-min Rain = 0
KPPS 191650Z 33015G21KT 07/M03 A3034 RMK A01 T00691031  RH  049%=      5-min Rain = 0
KPPS 191655Z 34015KT 07/M03 A3034 RMK A01 T00661032  RH  050%=      5-min Rain = 0
KPPS 191700Z 33014KT 07/M03 A3034 RMK A01 T00691032  RH  049%=      5-min Rain = 0
KPPS 191705Z 34013G20KT 07/M03 A3034 RMK A01 T00701030  RH  049%=      5-min Rain = 0
KPPS 191710Z 32012KT 07/M03 A3034 RMK A01 T00721028  RH  049%=      5-min Rain = 0
KPPS 191715Z 34013KT 07/M03 A3034 RMK A01 T00741027  RH  049%=      5-min Rain = 0
KPPS 191720Z 33013KT 08/M03 A3034 RMK A01 T00751028  RH  048%=      5-min Rain = 0
KPPS 191725Z 34013G18KT 08/M03 A3034 RMK A01 T00761027  RH  048%=      5-min Rain = 0
KPPS 191730Z 33012G18KT 08/M03 A3034 RMK A01 T00771029  RH  047%=      5-min Rain = 0
KPPS 191735Z 34012KT 08/M03 A3034 RMK A01 T00801028  RH  047%=      5-min Rain = 0
KPPS 191740Z 33010G15KT 08/M03 A3034 RMK A01 T00781030  RH  046%=      5-min Rain = 0
KPPS 191745Z 32011G16KT 08/M03 A3034 RMK A01 T00821029  RH  046%=      5-min Rain = 0
KPPS 191750Z 34010G15KT 09/M03 A3034 RMK A01 T00851027  RH  045%=      5-min Rain = 0
KPPS 191755Z 32011KT 08/M03 A3035 RMK A01 T00841030  RH  045%=      5-min Rain = 0
KPPS 191800Z 32011KT 09/M03 A3035 RMK A01 T00861029  RH  045%=      5-min Rain = 0
KPPS 191805Z 32009KT 09/M03 A3034 RMK A01 T00851029  RH  045%=      5-min Rain = 0
KPPS 191810Z 34010KT 09/M03 A3034 RMK A01 T00871027  RH  045%=      5-min Rain = 0
KPPS 191815Z 32009KT 09/M03 A3034 RMK A01 T00861028  RH  045%=      5-min Rain = 0
KPPS 191820Z 31006KT 09/M03 A3034 RMK A01 T00871027  RH  045%=      5-min Rain = 0
KPPS 191825Z 31008G14KT 09/M03 A3033 RMK A01 T00911025  RH  044%=      5-min Rain = 0
KPPS 191830Z 32008G13KT 09/M03 A3033 RMK A01 T00931025  RH  044%=      5-min Rain = 0
KPPS 191835Z 31009G14KT 09/M03 A3033 RMK A01 T00931029  RH  042%=      5-min Rain = 0
KPPS 191840Z 29008KT 09/M03 A3033 RMK A01 T00931027  RH  043%=      5-min Rain = 0
KPPS 191845Z 31008KT 10/M03 A3033 RMK A01 T00961027  RH  042%=      5-min Rain = 0
KPPS 191850Z 29007G12KT 10/M03 A3032 RMK A01 T00971027  RH  042%=      5-min Rain = 0
KPPS 191855Z 31007KT 10/M03 A3032 RMK A01 T00991027  RH  041%=      5-min Rain = 0
KPPS 191900Z 30007KT 10/M03 A3032 RMK A01 T01011027  RH  041%=      5-min Rain = 0
KPPS 191905Z 30009KT 10/M03 A3032 RMK A01 T01031026  RH  041%=      5-min Rain = 0
KPPS 191910Z 30009KT 10/M03 A3032 RMK A01 T01031029  RH  040%=      5-min Rain = 0
KPPS 191915Z 29009KT 10/M03 A3031 RMK A01 T01041029  RH  040%=      5-min Rain = 0
KPPS 191920Z 31009KT 11/M03 A3031 RMK A01 T01051030  RH  039%=      5-min Rain = 0
KPPS 191925Z 29009G14KT 11/M03 A303 RMK A01 T01061027  RH  039%=      5-min Rain = 0
KPPS 191930Z 30010KT 11/M03 A303 RMK A01 T01121030  RH  037%=      5-min Rain = 0
KPPS 191935Z 27008KT 11/M03 A303 RMK A01 T01121028  RH  038%=      5-min Rain = 0
KPPS 191940Z 31008KT 11/M03 A303 RMK A01 T01081029  RH  038%=      5-min Rain = 0
KPPS 191945Z 31009KT 11/M03 A3029 RMK A01 T01091030  RH  038%=      5-min Rain = 0
KPPS 191950Z 32008KT 11/M03 A3029 RMK A01 T01091032  RH  037%=      5-min Rain = 0
KPPS 191955Z 29007KT 11/M03 A3029 RMK A01 T01111030  RH  037%=      5-min Rain = 0
KPPS 192000Z 29006KT 12/M03 A3029 RMK A01 T01161025  RH  037%=      5-min Rain = 0
KPPS 192005Z 30007KT 12/M03 A3028 RMK A01 T01171033  RH  035%=      5-min Rain = 0
KPPS 192010Z 30008KT 12/M03 A3028 RMK A01 T01181032  RH  035%=      5-min Rain = 0
KPPS 192015Z 28007KT 12/M04 A3028 RMK A01 T01171035  RH  035%=      5-min Rain = 0
KPPS 192020Z 27006KT 12/M04 A3028 RMK A01 T01151037  RH  034%=      5-min Rain = 0
KPPS 192025Z 32007KT 12/M04 A3027 RMK A01 T01171043  RH  032%=      5-min Rain = 0
KPPS 192030Z 31008KT 12/M05 A3027 RMK A01 T01181045  RH  032%=      5-min Rain = 0
KPPS 192035Z 31007KT 12/M05 A3027 RMK A01 T01171052  RH  030%=      5-min Rain = 0
KPPS 192040Z 33008KT 12/M07 A3026 RMK A01 T01181068  RH  027%=      5-min Rain = 0
KPPS 192045Z 29008KT 12/M06 A3026 RMK A01 T01211061  RH  028%=      5-min Rain = 0
KPPS 192050Z 30005G11KT 12/M06 A3026 RMK A01 T01201058  RH  028%=      5-min Rain = 0
KPPS 192055Z 32004G12KT 12/M06 A3026 RMK A01 T01211060  RH  028%=      5-min Rain = 0
KPPS 192100Z 29006G14KT 12/M06 A3026 RMK A01 T01221064  RH  027%=      5-min Rain = 0
KPPS 192105Z 27001KT 12/M07 A3026 RMK A01 T01241068  RH  026%=      5-min Rain = 0
KPPS 192110Z 26007G12KT 13/M06 A3025 RMK A01 T01281059  RH  027%=      5-min Rain = 0
KPPS 192115Z 27008KT 12/M06 A3026 RMK A01 T01231061  RH  027%=      5-min Rain = 0
KPPS 192120Z 27006KT 12/M06 A3026 RMK A01 T01231058  RH  028%=      5-min Rain = 0
KPPS 192125Z 30005KT 12/M06 A3025 RMK A01 T01221059  RH  028%=      5-min Rain = 0
KPPS 192130Z 27008KT 12/M05 A3025 RMK A01 T01231054  RH  029%=      5-min Rain = 0
KPPS 192135Z 28007KT 12/M06 A3025 RMK A01 T01241055  RH  028%=      5-min Rain = 0
KPPS 192140Z 27008KT 13/M06 A3025 RMK A01 T01261060  RH  027%=      5-min Rain = 0
KPPS 192145Z 26008KT 12/M06 A3025 RMK A01 T01241061  RH  027%=      5-min Rain = 0
KPPS 192150Z 27005KT 13/M06 A3025 RMK A01 T01251063  RH  027%=      5-min Rain = 0
KPPS 192155Z 28007G12KT 13/M06 A3025 RMK A01 T01251063  RH  026%=      5-min Rain = 0
KPPS 192200Z 29009KT 12/M07 A3025 RMK A01 T01241069  RH  025%=      5-min Rain = 0
KPPS 192205Z 29009KT 13/M07 A3025 RMK A01 T01251070  RH  025%=      5-min Rain = 0
KPPS 192210Z 32007KT 12/M07 A3024 RMK A01 T01241073  RH  025%=      5-min Rain = 0
KPPS 192215Z 27005G10KT 12/M07 A3025 RMK A01 T01241071  RH  025%=      5-min Rain = 0
KPPS 192220Z 28005KT 13/M07 A3024 RMK A01 T01251071  RH  025%=      5-min Rain = 0
KPPS 192225Z 28005G10KT 13/M07 A3025 RMK A01 T01251070  RH  025%=      5-min Rain = 0
KPPS 192230Z 28008KT 13/M07 A3024 RMK A01 T01251069  RH  025%=      5-min Rain = 0
KPPS 192235Z 27008KT 12/M07 A3024 RMK A01 T01231069  RH  025%=      5-min Rain = 0
KPPS 192240Z 28006KT 12/M07 A3024 RMK A01 T01221070  RH  025%=      5-min Rain = 0
KPPS 192245Z 27003KT 12/M07 A3024 RMK A01 T01241072  RH  025%=      5-min Rain = 0
KPPS 192250Z 26004KT 13/M07 A3024 RMK A01 T01251068  RH  025%=      5-min Rain = 0
KPPS 192255Z 29005KT 13/M07 A3024 RMK A01 T01251070  RH  025%=      5-min Rain = 0
KPPS 192300Z 29005KT 12/M07 A3024 RMK A01 T01231071  RH  025%=      5-min Rain = 0
KPPS 192305Z 28005KT 12/M07 A3025 RMK A01 T01241071  RH  025%=      5-min Rain = 0
KPPS 192310Z 28006KT 12/M07 A3025 RMK A01 T01231069  RH  025%=      5-min Rain = 0
KPPS 192315Z 28004KT 12/M07 A3024 RMK A01 T01221069  RH  026%=      5-min Rain = 0
KPPS 192320Z 28005KT 12/M07 A3024 RMK A01 T01221070  RH  025%=      5-min Rain = 0
KPPS 192325Z 27007KT 12/M07 A3024 RMK A01 T01201069  RH  026%=      5-min Rain = 0
KPPS 192330Z 26006KT 12/M07 A3024 RMK A01 T01191071  RH  026%=      5-min Rain = 0
KPPS 192335Z 26006KT 12/M07 A3024 RMK A01 T01181072  RH  026%=      5-min Rain = 0
KPPS 192340Z 26006KT 12/M07 A3024 RMK A01 T01161072  RH  026%=      5-min Rain = 0
KPPS 192345Z 25005KT 11/M07 A3024 RMK A01 T01121069  RH  027%=      5-min Rain = 0
KPPS 192350Z 25006KT 11/M07 A3024 RMK A01 T01091070  RH  028%=      5-min Rain = 0
KPPS 192355Z 26005KT 10/M07 A3024 RMK A01 T01041070  RH  029%=      5-min Rain = 0
KPPS 200000Z 26005KT 10/M07 A3024 RMK A01 T01001071  RH  029%=      5-min Rain = 0
KPPS 200005Z 26005KT 10/M07 A3025 RMK A01 T00961072  RH  030%=      5-min Rain = 0
KPPS 200010Z 26005KT 09/M07 A3025 RMK A01 T00921073  RH  030%=      5-min Rain = 0
KPPS 200015Z 26005KT 09/M07 A3025 RMK A01 T00881074  RH  031%=      5-min Rain = 0
KPPS 200020Z 26005KT 09/M07 A3025 RMK A01 T00851074  RH  032%=      5-min Rain = 0
KPPS 200025Z 25004KT 08/M07 A3025 RMK A01 T00841073  RH  032%=      5-min Rain = 0
KPPS 200030Z 25004KT 08/M07 A3025 RMK A01 T00831073  RH  032%=      5-min Rain = 0
KPPS 200035Z 26003KT 08/M07 A3025 RMK A01 T00811072  RH  033%=      5-min Rain = 0
KPPS 200040Z 26004KT 08/M07 A3025 RMK A01 T00791073  RH  033%=      5-min Rain = 0
KPPS 200045Z 25004KT 08/M07 A3025 RMK A01 T00801074  RH  033%=      5-min Rain = 0
KPPS 200050Z 24004KT 08/M08 A3025 RMK A01 T00821075  RH  032%=      5-min Rain = 0
KPPS 200055Z 25004KT 08/M08 A3025 RMK A01 T00821076  RH  032%=      5-min Rain = 0
KPPS 200100Z 25004KT 08/M08 A3025 RMK A01 T00831077  RH  031%=      5-min Rain = 0
KPPS 200105Z 25003KT 09/M08 A3026 RMK A01 T00851078  RH  031%=      5-min Rain = 0
KPPS 200110Z 24002KT 09/M08 A3026 RMK A01 T00881080  RH  030%=      5-min Rain = 0
KPPS 200115Z 23002KT 09/M08 A3025 RMK A01 T00871080  RH  030%=      5-min Rain = 0
KPPS 200120Z 23001KT 08/M08 A3025 RMK A01 T00801078  RH  032%=      5-min Rain = 0
KPPS 200125Z 21002KT 07/M08 A3025 RMK A01 T00731078  RH  033%=      5-min Rain = 0
KPPS 200130Z 18003KT 07/M08 A3025 RMK A01 T00651077  RH  035%=      5-min Rain = 0
KPPS 200135Z 17002KT 06/M08 A3024 RMK A01 T00591078  RH  036%=      5-min Rain = 0
KPPS 200140Z 15003KT 05/M08 A3024 RMK A01 T00531078  RH  038%=      5-min Rain = 0
KPPS 200145Z 15004KT 05/M08 A3024 RMK A01 T00501080  RH  038%=      5-min Rain = 0
KPPS 200150Z 15004KT 05/M08 A3024 RMK A01 T00481081  RH  039%=      5-min Rain = 0
KPPS 200155Z 16004KT 05/M08 A3024 RMK A01 T00501080  RH  038%=      5-min Rain = 0
KPPS 200200Z 16003KT 05/M08 A3024 RMK A01 T00541080  RH  037%=      5-min Rain = 0
KPPS 200205Z 15003KT 06/M08 A3025 RMK A01 T00571080  RH  037%=      5-min Rain = 0
KPPS 200210Z 13004KT 06/M08 A3025 RMK A01 T00581080  RH  036%=      5-min Rain = 0
KPPS 200215Z 13003KT 06/M08 A3026 RMK A01 T00581080  RH  036%=      5-min Rain = 0
KPPS 200220Z 13002KT 06/M08 A3026 RMK A01 T00601080  RH  036%=      5-min Rain = 0
KPPS 200225Z 14002KT 06/M08 A3027 RMK A01 T00601080  RH  036%=      5-min Rain = 0
KPPS 200230Z 14001KT 06/M08 A3027 RMK A01 T00581080  RH  036%=      5-min Rain = 0
KPPS 200235Z 16001KT 06/M08 A3028 RMK A01 T00571079  RH  037%=      5-min Rain = 0
KPPS 200240Z 20004KT 06/M08 A3028 RMK A01 T00571078  RH  037%=      5-min Rain = 0
KPPS 200245Z 21006KT 05/M08 A3028 RMK A01 T00541079  RH  038%=      5-min Rain = 0
KPPS 200250Z 22005KT 03/M08 A3029 RMK A01 T00341079  RH  043%=      5-min Rain = 0
KPPS 200255Z 22005KT 02/M08 A3029 RMK A01 T00201077  RH  048%=      5-min Rain = 0
KPPS 200300Z 21005KT 02/M08 A3028 RMK A01 T00231077  RH  048%=      5-min Rain = 0
KPPS 200305Z 16004KT 02/M08 A3027 RMK A01 T00231078  RH  047%=      5-min Rain = 0
KPPS 200310Z 11006KT 01/M08 A3027 RMK A01 T00111076  RH  052%=      5-min Rain = 0
KPPS 200315Z 13007KT 02/M08 A3027 RMK A01 T00171076  RH  050%=      5-min Rain = 0
KPPS 200320Z 14006KT 02/M08 A3027 RMK A01 T00181077  RH  049%=      5-min Rain = 0
KPPS 200325Z 16007KT 02/M08 A3027 RMK A01 T00201076  RH  049%=      5-min Rain = 0
KPPS 200330Z 16007KT 03/M08 A3027 RMK A01 T00251076  RH  047%=      5-min Rain = 0
KPPS 200335Z 17009KT 03/M08 A3027 RMK A01 T00261077  RH  047%=      5-min Rain = 0
KPPS 200340Z 16008KT 03/M08 A3027 RMK A01 T00301076  RH  046%=      5-min Rain = 0
KPPS 200345Z 13006KT 02/M08 A3027 RMK A01 T00181078  RH  049%=      5-min Rain = 0
KPPS 200350Z 14006KT 02/M08 A3027 RMK A01 T00191077  RH  049%=      5-min Rain = 0
KPPS 200355Z 14006KT 02/M08 A3026 RMK A01 T00221078  RH  047%=      5-min Rain = 0
KPPS 200400Z 13006KT 02/M08 A3026 RMK A01 T00191079  RH  048%=      5-min Rain = 0
KPPS 200405Z 14007KT 02/M08 A3026 RMK A01 T00161078  RH  050%=      5-min Rain = 0
KPPS 200410Z 14007KT 01/M08 A3026 RMK A01 T00121077  RH  052%=      5-min Rain = 0
KPPS 200415Z 15005KT 01/M08 A3027 RMK A01 T00101076  RH  052%=      5-min Rain = 0
KPPS 200420Z 15006KT 01/M08 A3027 RMK A01 T00141077  RH  051%=      5-min Rain = 0
KPPS 200425Z 14007KT 02/M08 A3027 RMK A01 T00151077  RH  050%=      5-min Rain = 0
KPPS 200430Z 13007KT 02/M08 A3027 RMK A01 T00151076  RH  050%=      5-min Rain = 0
KPPS 200435Z 14007KT 02/M08 A3027 RMK A01 T00161075  RH  051%=      5-min Rain = 0
KPPS 200440Z 14007KT 02/M08 A3027 RMK A01 T00151076  RH  051%=      5-min Rain = 0
KPPS 200445Z 14007KT 01/M08 A3027 RMK A01 T00081077  RH  053%=      5-min Rain = 0
KPPS 200450Z 14008KT 01/M08 A3026 RMK A01 T00071075  RH  054%=      5-min Rain = 0
KPPS 200455Z 15008KT 01/M08 A3027 RMK A01 T00051076  RH  055%=      5-min Rain = 0
KPPS 200500Z 14008KT 00/M08 A3026 RMK A01 T00031075  RH  056%=      5-min Rain = 0
KPPS 200505Z 14008KT 00/M07 A3026 RMK A01 T00011074  RH  057%=      5-min Rain = 0
KPPS 200510Z 15008KT 00/M07 A3027 RMK A01 T00011072  RH  058%=      5-min Rain = 0
KPPS 200515Z 15007KT 00/M07 A3027 RMK A01 T00031072  RH  057%=      5-min Rain = 0
KPPS 200520Z 15008KT 00/M07 A3027 RMK A01 T00011073  RH  058%=      5-min Rain = 0
KPPS 200525Z 16008KT 00/M07 A3027 RMK A01 T00021069  RH  059%=      5-min Rain = 0
KPPS 200530Z 16009KT 01/M06 A3027 RMK A01 T00071063  RH  059%=      5-min Rain = 0
KPPS 200535Z 16008KT 01/M06 A3027 RMK A01 T00141057  RH  059%=      5-min Rain = 0
KPPS 200540Z 16008KT 02/M06 A3027 RMK A01 T00181055  RH  058%=      5-min Rain = 0
KPPS 200545Z 16008KT 02/M06 A3027 RMK A01 T00171055  RH  059%=      5-min Rain = 0
KPPS 200550Z 16009KT 02/M05 A3027 RMK A01 T00201052  RH  059%=      5-min Rain = 0
KPPS 200555Z 16009KT 02/M05 A3027 RMK A01 T00231051  RH  058%=      5-min Rain = 0

Page generated in 0.0396 seconds.